< < Back
Terminal Aerodrome Forecast


Current Version              Previous Versions:   1  2  3  4  5  6  7  8  9  

Terminal Aerodrome Forecast

369
FTUS42 KFFC 150300 AAB
TAFMCN
TAF AMD
KMCN 150309Z 1503/1524 07007KT P6SM OVC008
     FM150400 VRB03KT 3SM BR OVC005
     FM150800 VRB03KT 2SM BR OVC003
     FM151500 11005KT P6SM BKN015
     FM151900 25007KT P6SM BKN030 PROB30 1520/1524 4SM -TSRA
      BKN025CB=

Latest METAR

882
SAUS80 KWBC 150900 RRA
MTRMCN
METAR KMCN 150853Z AUTO 02004KT 4SM BR OVC004 21/21 A3016 RMK AO2 SLP208
T02110211 55006 TSNO


USA.gov is the U.S. government's official web portal to all federal, state and local government web resources and services.